Latest Weather Observations for Leinster

IDW60801

Issued at 11:02 pm WST Monday 31 August 2015 (issued every 30 minutes, with the page automatically refreshed every 10 minutes)

About weather observations | Map of weather stations | Latest weather observations for WA | Other Formats
Station Details ID: 012314 Name: LEINSTER AERO Lat: -27.84 Lon: 120.70 Height: 497.0 m
Data from the previous 72 hours. | See also: Recent months at Leinster
Date/Time
WST
Temp
°C
App
Temp
°C
Dew
Point
Rel
Hum
%
Delta-T
°C
Wind Press
QNH
hPa
Press
MSL
hPa
Rain
since 9 am
mm
Dir
 
Spd
km/h
Gust
km/h
Spd
kts
Gust
kts
31/11:00pm 14.6 9.0 1.5 41 5.9 SW 20 32 11 17 1016.4 1015.6 0.0
31/10:30pm 15.1 8.7 0.9 38 6.3 SW 24 37 13 20 1016.5 1015.7 0.0
31/10:00pm 15.7 10.1 1.1 37 6.5 SW 20 28 11 15 1016.4 1015.6 0.0
31/09:30pm 16.3 10.7 1.2 36 6.8 WSW 20 30 11 16 1016.4 1015.6 0.0
31/09:00pm 16.9 11.0 1.8 36 6.9 WSW 22 32 12 17 1016.4 1015.6 0.0
31/08:30pm 17.6 11.4 2.0 35 7.2 WSW 24 35 13 19 1016.2 1015.4 0.0
31/08:00pm 18.1 12.6 2.0 34 7.5 WSW 20 30 11 16 1015.8 1015.0 0.0
31/07:30pm 18.7 12.8 1.7 32 7.9 WSW 22 30 12 16 1015.4 1014.6 0.0
31/07:00pm 19.5 14.1 1.0 29 8.5 WSW 19 26 10 14 1015.1 1014.3 0.0
31/06:30pm 20.3 14.3 1.2 28 8.9 W 22 30 12 16 1014.7 1013.9 0.0
31/06:00pm 21.0 15.0 0.8 26 9.4 W 22 32 12 17 1014.4 1013.6 0.0
31/05:30pm 21.9 15.6 1.5 26 9.7 WSW 24 33 13 18 1014.1 1013.2 0.0
31/05:00pm 22.7 16.3 1.1 24 10.2 WNW 24 41 13 22 1013.7 1012.9 0.0
31/04:30pm 23.3 16.4 0.4 22 10.7 WNW 26 39 14 21 1013.6 1012.8 0.0
31/04:00pm 23.5 17.7 2.4 25 10.3 W 22 33 12 18 1013.6 1012.8 0.0
31/03:30pm 22.6 17.1 1.6 25 10.0 WNW 20 28 11 15 1013.8 1013.0 0.0
31/03:00pm 23.4 17.9 1.7 24 10.4 WNW 20 32 11 17 1014.0 1013.1 0.0
31/02:30pm 24.0 17.3 1.6 23 10.8 WNW 26 35 14 19 1014.4 1013.6 0.0
31/02:00pm 24.1 18.9 2.3 24 10.7 WNW 19 32 10 17 1014.6 1013.8 0.0
31/01:30pm 23.7 18.5 2.5 25 10.4 WNW 19 32 10 17 1014.9 1014.1 0.0
31/01:00pm 23.1 17.4 3.1 27 9.9 NW 22 33 12 18 1015.3 1014.5 0.0
31/12:30pm 23.1 18.0 3.1 27 9.9 NW 19 28 10 15 1015.6 1014.8 0.0
31/12:00pm 22.4 17.6 4.5 31 9.0 W 19 28 10 15 1016.3 1015.5 0.0
31/11:30am 21.4 18.5 4.9 34 8.3 WNW 9 15 5 8 1016.7 1015.9 0.0
31/11:00am 21.4 18.9 4.9 34 8.3 N 7 17 4 9 1017.3 1016.5 0.0
31/10:30am 20.9 18.2 5.7 37 7.8 N 9 13 5 7 1017.7 1016.9 0.0
31/10:00am 19.5 18.0 6.6 43 6.6 NNW 4 9 2 5 1018.1 1017.4 0.0
31/09:30am 18.5 16.1 7.0 47 5.9 ENE 9 13 5 7 1018.3 1017.5 0.0
31/09:00am 16.9 14.1 7.0 52 5.0 NE 11 15 6 8 1018.5 1017.7 0.0
31/08:30am 15.8 12.7 7.3 57 4.3 ENE 13 17 7 9 1018.5 1017.7 0.0
31/08:00am 14.9 12.5 7.2 60 3.9 E 9 13 5 7 1018.4 1017.6 0.0
31/07:30am 14.1 12.0 6.7 61 3.7 NE 7 9 4 5 1018.3 1017.5 0.0
31/07:00am 13.0 11.3 6.1 63 3.4 NNW 4 9 2 5 1018.1 1017.4 0.0
31/06:30am 12.5 10.8 5.9 64 3.2 WSW 4 7 2 4 1017.9 1017.2 0.0
31/06:00am 12.2 9.5 5.4 63 3.2 SSW 9 11 5 6 1017.8 1017.1 0.0
31/05:30am 12.4 10.3 5.6 63 3.3 E 6 9 3 5 1017.5 1016.7 0.0
31/05:00am 12.1 9.7 5.3 63 3.2 SE 7 9 4 5 1017.4 1016.6 0.0
31/04:30am 12.0 9.2 5.2 63 3.2 E 9 11 5 6 1017.1 1016.3 0.0
31/04:00am 12.1 9.3 5.0 62 3.4 E 9 13 5 7 1017.0 1016.2 0.0
31/03:30am 12.2 8.9 4.7 60 3.5 SE 11 13 6 7 1017.2 1016.4 0.0
31/03:00am 11.9 10.3 4.6 61 3.4 SE 2 9 1 5 1017.5 1016.7 0.0
31/02:30am 12.3 9.8 4.5 59 3.7 SE 7 9 4 5 1017.7 1016.9 0.0
31/02:00am 13.0 10.1 4.7 57 3.9 S 9 11 5 6 1017.8 1017.1 0.0
31/01:30am 13.4 10.5 4.6 55 4.2 SSE 9 11 5 6 1018.1 1017.4 0.0
31/01:00am 13.5 10.6 4.4 54 4.3 S 9 15 5 8 1018.6 1017.8 0.0
31/12:30am 13.8 10.5 4.4 53 4.4 S 11 13 6 7 1018.7 1017.9 0.0
31/12:00am 13.4 10.7 3.8 52 4.5 SW 7 9 4 5 1019.0 1018.2 0.0
 
Date/Time
WST
Temp
°C
App
Temp
°C
Dew
Point
Rel
Hum
%
Delta-T
°C
Wind Press
QNH
hPa
Press
MSL
hPa
Rain
since 9 am
mm
Dir
 
Spd
km/h
Gust
km/h
Spd
kts
Gust
kts
30/11:30pm 14.6 11.1 3.7 48 5.1 SSW 11 15 6 8 1018.9 1018.1 0.0
30/11:00pm 14.6 11.4 3.1 46 5.3 SSW 9 11 5 6 1019.0 1018.2 0.0
30/10:30pm 15.3 12.0 2.5 42 5.9 S 9 11 5 6 1019.0 1018.2 0.0
30/10:00pm 15.3 12.4 2.5 42 5.9 SW 7 11 4 6 1019.2 1018.4 0.0
30/09:30pm 15.9 13.0 1.6 38 6.5 SSW 6 9 3 5 1019.2 1018.4 0.0
30/09:00pm 17.1 14.1 1.9 36 7.0 SSW 7 9 4 5 1019.2 1018.4 0.0
30/08:30pm 17.4 14.4 1.8 35 7.2 SW 7 9 4 5 1019.1 1018.3 0.0
30/08:00pm 18.7 15.3 2.1 33 7.8 SW 9 11 5 6 1019.0 1018.2 0.0
30/07:30pm 19.6 15.5 2.5 32 8.1 SSW 13 17 7 9 1018.7 1017.9 0.0
30/07:00pm 19.9 17.0 2.7 32 8.2 SSW 7 9 4 5 1018.4 1017.6 0.0
30/06:30pm 20.4 17.6 3.2 32 8.3 SW 7 11 4 6 1017.9 1017.2 0.0
30/06:00pm 21.4 18.3 3.6 31 8.7 SW 9 13 5 7 1017.8 1017.1 0.0
30/05:30pm 22.1 18.9 3.3 29 9.2 WSW 9 13 5 7 1017.6 1016.8 0.0
30/05:00pm 22.4 18.5 3.5 29 9.3 WSW 13 20 7 11 1017.3 1016.5 0.0
30/04:30pm 23.3 19.8 3.3 27 9.9 NW 11 19 6 10 1017.1 1016.3 0.0
30/04:00pm 22.9 18.6 3.4 28 9.6 WNW 15 22 8 12 1017.1 1016.3 0.0
30/03:30pm 23.5 19.6 3.4 27 10.0 WSW 13 22 7 12 1017.1 1016.3 0.0
30/03:00pm 23.2 19.1 4.2 29 9.6 SW 15 28 8 15 1017.0 1016.2 0.0
30/02:30pm 23.3 18.4 4.3 29 9.6 W 19 37 10 20 1017.0 1016.2 0.0
30/02:00pm 22.9 19.3 4.9 31 9.2 WSW 13 24 7 13 1017.3 1016.5 0.0
30/01:30pm 23.2 19.2 5.1 31 9.3 WSW 15 22 8 12 1017.5 1016.7 0.0
30/01:00pm 21.7 18.7 6.0 36 8.1 SSW 11 17 6 9 1017.7 1016.9 0.0
30/12:30pm 22.4 18.8 6.6 36 8.3 W 15 20 8 11 1018.0 1017.3 0.0
30/12:00pm 21.0 17.8 6.9 40 7.3 W 13 22 7 12 1018.6 1017.8 0.0
30/11:30am 21.3 17.5 7.5 41 7.3 SW 17 28 9 15 1019.1 1018.3 0.0
30/11:00am 20.8 17.3 7.4 42 7.0 SW 15 22 8 12 1019.4 1018.6 0.0
30/10:30am 20.1 16.7 7.8 45 6.5 SSW 15 20 8 11 1019.7 1019.0 0.0
30/10:00am 18.8 15.2 8.2 50 5.6 SSW 17 24 9 13 1019.7 1019.0 0.0
30/09:30am 18.5 14.0 8.5 52 5.3 S 22 30 12 16 1019.7 1019.0 0.0
30/09:00am 18.0 14.1 8.6 54 5.0 SSW 19 28 10 15 1019.5 1018.8 0.0
30/08:30am 17.3 13.5 9.0 58 4.4 SSW 19 24 10 13 1019.4 1018.6 0.0
30/08:00am 16.3 13.2 9.0 62 3.8 S 15 19 8 10 1019.4 1018.6 0.0
30/07:30am 14.8 11.8 7.8 63 3.6 SSW 13 15 7 8 1018.9 1018.1 0.0
30/07:00am 13.0 10.5 6.4 64 3.2 SW 9 9 5 5 1018.5 1017.7 0.0
30/06:30am 11.3 8.5 5.2 66 2.9 SW 9 11 5 6 1017.9 1017.2 0.0
30/06:00am 11.1 8.1 4.1 62 3.2 SW 9 11 5 6 1017.5 1016.7 0.0
30/05:30am 10.9 7.5 3.9 62 3.2 WSW 11 11 6 6 1017.2 1016.4 0.0
30/05:19am 10.8 7.7 3.8 62 3.2 WSW 9 11 5 6 1017.0 1016.2 0.0
30/05:06am 10.9 7.8 3.7 61 3.3 WSW 9 11 5 6 1016.8 1016.0 0.0
30/05:00am 11.0 7.9 3.8 61 3.3 WSW 9 9 5 5 1016.8 1016.0 0.0
30/04:30am 11.6 8.6 3.9 59 3.5 W 9 11 5 6 1016.6 1015.8 0.0
30/04:00am 12.2 9.1 3.7 56 3.9 W 9 11 5 6 1016.3 1015.5 0.0
30/03:30am 12.4 9.7 3.9 56 3.9 W 7 9 4 5 1015.9 1015.1 0.0
30/03:00am 13.5 10.8 3.8 52 4.5 WSW 7 9 4 5 1015.8 1015.0 0.0
30/02:30am 14.5 11.1 3.9 49 5.0 WSW 11 13 6 7 1015.6 1014.8 0.0
30/02:00am 15.0 11.6 3.8 47 5.3 W 11 17 6 9 1015.5 1014.7 0.0
30/01:30am 16.1 12.3 3.9 44 5.8 WSW 13 17 7 9 1015.4 1014.6 0.0
30/01:00am 16.6 12.8 4.0 43 6.0 WSW 13 19 7 10 1015.3 1014.5 0.0
30/12:30am 16.8 13.1 4.2 43 6.1 SW 13 17 7 9 1015.2 1014.4 0.0
30/12:00am 16.9 13.5 3.9 42 6.2 WSW 11 15 6 8 1015.3 1014.5 0.0
 
Date/Time
WST
Temp
°C
App
Temp
°C
Dew
Point
Rel
Hum
%
Delta-T
°C
Wind Press
QNH
hPa
Press
MSL
hPa
Rain
since 9 am
mm
Dir
 
Spd
km/h
Gust
km/h
Spd
kts
Gust
kts
29/11:30pm 17.9 14.1 4.1 40 6.7 WSW 13 17 7 9 1015.3 1014.5 0.0
29/11:00pm 18.4 14.6 3.8 38 7.1 WSW 13 19 7 10 1015.4 1014.6 0.0
29/10:30pm 18.2 14.6 2.9 36 7.3 WSW 11 13 6 7 1015.4 1014.6 0.0
29/10:00pm 18.7 15.3 2.1 33 7.8 WSW 9 13 5 7 1015.4 1014.6 0.0
29/09:30pm 19.3 15.5 1.8 31 8.2 WSW 11 13 6 7 1015.2 1014.4 0.0
29/09:00pm 19.9 16.4 1.4 29 8.6 W 9 13 5 7 1015.0 1014.2 0.0
29/08:30pm 20.8 17.2 0.6 26 9.3 W 9 13 5 7 1014.8 1014.0 0.0
29/08:00pm 22.1 17.7 0.6 24 10.0 WSW 13 15 7 8 1014.4 1013.6 0.0
29/07:30pm 22.9 18.5 0.1 22 10.6 W 13 17 7 9 1013.8 1013.0 0.0
29/07:00pm 24.2 18.8 -1.6 18 11.7 W 17 28 9 15 1013.3 1012.5 0.0
29/06:30pm 24.8 19.8 -1.1 18 12.0 W 15 20 8 11 1012.9 1012.1 0.0
29/06:00pm 25.7 20.3 -1.2 17 12.5 WNW 17 22 9 12 1012.3 1011.4 0.0
29/05:30pm 26.7 20.8 -2.1 15 13.2 NW 19 30 10 16 1011.7 1010.9 0.0
29/05:00pm 27.6 21.0 -3.3 13 14.0 NW 22 33 12 18 1011.3 1010.5 0.0
29/04:30pm 28.1 20.4 -2.9 13 14.2 NW 28 37 15 20 1011.2 1010.4 0.0
29/04:02pm 28.8 20.2 -4.6 11 14.9 NW 32 50 17 27 1010.9 1010.1 0.0
29/04:00pm 28.7 20.0 -3.5 12 14.7 NW 33 50 18 27 1010.9 1010.1 0.0
29/03:55pm 28.8 20.5 -4.6 11 14.9 NW 30 50 16 27 1010.9 1010.1 0.0
29/03:30pm 28.9 21.5 -3.3 12 14.7 WNW 26 44 14 24 1010.8 1010.0 0.0
29/03:00pm 29.1 21.0 -3.2 12 14.9 NW 30 48 16 26 1011.0 1010.2 0.0
29/02:44pm 28.8 20.8 -2.3 13 14.5 NW 30 48 16 26 1011.1 1010.3 0.0
29/02:30pm 29.7 22.9 -1.6 13 14.9 NW 24 43 13 23 1011.1 1010.3 0.0
29/02:00pm 29.8 22.0 -0.5 14 14.7 NW 30 50 16 27 1011.3 1010.5 0.0
29/01:30pm 29.1 21.0 -0.1 15 14.2 NNW 32 50 17 27 1011.6 1010.8 0.0
29/01:08pm 28.8 21.6 0.5 16 13.8 NW 28 46 15 25 1011.7 1010.9 0.0
29/01:00pm 28.8 20.8 0.5 16 13.9 NNW 32 46 17 25 1012.0 1011.1 0.0
29/12:36pm 28.7 20.5 0.4 16 13.8 NNW 33 54 18 29 1012.4 1011.5 0.0
29/12:30pm 28.8 20.7 -0.4 15 14.1 NW 32 46 17 25 1012.6 1011.8 0.0
29/12:00pm 29.0 22.6 0.7 16 13.9 NNW 24 39 13 21 1013.0 1012.2 0.0
29/11:30am 28.4 23.0 2.6 19 13.1 NNW 20 32 11 17 1013.6 1012.8 0.0
29/11:00am 27.6 22.1 1.9 19 12.8 N 20 30 11 16 1014.2 1013.3 0.0
29/10:30am 26.9 21.3 1.3 19 12.5 N 20 28 11 15 1014.6 1013.8 0.0
29/10:00am 25.8 19.4 1.2 20 11.9 NNE 24 32 13 17 1014.8 1014.0 0.0
29/09:30am 24.9 18.1 1.1 21 11.5 NNE 26 35 14 19 1015.0 1014.2 0.0
29/09:00am 22.8 17.0 2.3 26 9.9 NNE 22 33 12 18 1015.1 1014.3 0.0
29/08:30am 20.7 15.4 2.0 29 8.9 NE 19 24 10 13 1015.2 1014.4 0.0
29/08:00am 18.5 13.6 1.9 33 7.7 NE 17 22 9 12 1015.1 1014.3 0.0
29/07:30am 16.8 12.7 2.0 37 6.8 ENE 13 17 7 9 1015.0 1014.2 0.0
29/07:00am 16.1 12.0 2.5 40 6.3 ENE 13 15 7 8 1014.8 1014.0 0.0
29/06:30am 16.8 12.6 3.8 42 6.2 NE 15 20 8 11 1014.7 1013.9 0.0
29/06:00am 18.6 13.4 5.5 42 6.6 NNE 22 48 12 26 1013.5 1012.7 0.0
29/05:30am 15.5 11.9 0.9 37 6.5 NE 9 15 5 8 1014.8 1014.0 0.0
29/05:00am 15.6 11.2 0.6 36 6.6 ENE 13 17 7 9 1014.2 1013.3 0.0
29/04:30am 16.3 11.6 0.8 35 6.9 ENE 15 20 8 11 1014.1 1013.2 0.0
29/04:00am 16.5 11.8 1.0 35 7.0 ENE 15 20 8 11 1014.0 1013.1 0.0
29/03:30am 17.1 12.1 1.1 34 7.2 ENE 17 24 9 13 1014.5 1013.7 0.0
29/03:00am 17.2 12.6 1.6 35 7.1 NE 15 19 8 10 1014.8 1014.0 0.0
29/02:30am 16.3 12.5 1.6 37 6.7 ENE 11 15 6 8 1014.8 1014.0 0.0
29/02:00am 16.3 12.5 1.6 37 6.7 ENE 11 13 6 7 1015.1 1014.3 0.0
29/01:30am 16.3 12.9 1.6 37 6.7 ESE 9 11 5 6 1015.3 1014.5 0.0
29/01:00am 17.7 14.3 1.7 34 7.4 E 9 13 5 7 1015.5 1014.7 0.0
29/12:30am 18.9 14.0 1.9 32 7.9 ENE 17 22 9 12 1015.8 1015.0 0.0
29/12:00am 18.7 16.0 2.5 34 7.6 NNE 6 15 3 8 1016.5 1015.7 0.0
 
Date/Time
WST
Temp
°C
App
Temp
°C
Dew
Point
Rel
Hum
%
Delta-T
°C
Wind Press
QNH
hPa
Press
MSL
hPa
Rain
since 9 am
mm
Dir
 
Spd
km/h
Gust
km/h
Spd
kts
Gust
kts
28/11:30pm 19.2 15.4 1.7 31 8.2 ENE 11 19 6 10 1016.2 1015.4 0.0

Other Formats:

Comma delimited format used in spreadsheet applications
http://www.bom.gov.au/fwo/IDW60801/IDW60801.95448.axf

JavaScript Object Notation format (JSON) in row-major order
http://www.bom.gov.au/fwo/IDW60801/IDW60801.95448.json